Time;durP1;ratioP1;P1;durP2;ratioP2;P2;SDS_P1;SDS_P2;PMS_P1;PMS_P2;Temp;Humidity;BMP_temperature;BMP_pressure;BME280_temperature;BME280_humidity;BME280_pressure;Samples;Min_cycle;Max_cycle;Signal;HPM_P1;HPM_P2
2023/04/28 00:02:38;;;;;;;12.55;5.80;;;10.50;99.90;;;;;;5030939;28;20041;-90
2023/04/28 00:05:25;;;;;;;10.20;6.22;;;10.50;99.90;;;;;;5009032;28;20145;-89
2023/04/28 00:08:15;;;;;;;13.38;7.03;;;10.40;99.90;;;;;;5019037;28;20041;-88
2023/04/28 00:11:07;;;;;;;11.35;6.05;;;10.30;99.90;;;;;;5029107;28;20071;-88
2023/04/28 00:13:55;;;;;;;9.73;6.85;;;10.20;99.90;;;;;;5033727;28;20042;-87
2023/04/28 00:16:42;;;;;;;13.65;6.95;;;10.10;99.90;;;;;;5034365;28;20433;-87
2023/04/28 00:19:29;;;;;;;8.88;7.05;;;9.90;99.90;;;;;;5034531;28;20038;-88
2023/04/28 00:22:17;;;;;;;12.73;7.28;;;9.80;1.00;;;;;;5026244;28;20052;-88
2023/04/28 00:25:05;;;;;;;12.13;7.28;;;9.80;1.00;;;;;;5041467;28;20042;-88
2023/04/28 00:27:55;;;;;;;12.90;8.20;;;9.70;1.00;;;;;;5037453;28;20423;-85
2023/04/28 00:30:42;;;;;;;13.13;8.63;;;9.70;1.00;;;;;;5037013;28;20033;-85
2023/04/28 00:33:31;;;;;;;13.30;8.27;;;9.70;1.00;;;;;;5025603;28;20131;-86
2023/04/28 00:36:18;;;;;;;14.57;8.38;;;9.60;1.00;;;;;;5038485;28;20060;-87
2023/04/28 00:39:08;;;;;;;15.45;8.52;;;9.60;1.00;;;;;;5024425;28;20121;-90
2023/04/28 00:41:58;;;;;;;11.98;7.13;;;9.60;1.00;;;;;;5029380;28;20046;-87
2023/04/28 00:44:45;;;;;;;11.70;7.50;;;9.60;1.00;;;;;;5029710;28;20122;-88
2023/04/28 00:47:33;;;;;;;11.75;7.25;;;9.70;1.00;;;;;;5020541;28;20057;-89
2023/04/28 00:50:25;;;;;;;14.65;6.70;;;9.70;1.00;;;;;;5020173;28;20045;-87
2023/04/28 00:53:12;;;;;;;13.65;7.63;;;9.70;1.00;;;;;;5033843;28;20095;-89
2023/04/28 00:56:00;;;;;;;11.75;6.32;;;9.70;1.00;;;;;;5039175;28;20052;-89
2023/04/28 00:58:47;;;;;;;7.07;5.50;;;9.80;1.00;;;;;;5012367;28;20060;-88
2023/04/28 01:01:35;;;;;;;11.88;6.53;;;9.80;1.00;;;;;;5049463;28;20068;-87
2023/04/28 01:04:23;;;;;;;8.55;7.13;;;9.90;1.00;;;;;;5044037;28;20049;-88
2023/04/28 01:07:15;;;;;;;8.60;6.60;;;10.00;1.00;;;;;;5038247;28;20119;-87
2023/04/28 01:10:03;;;;;;;17.48;6.75;;;10.00;1.00;;;;;;5030664;28;20158;-87
2023/04/28 01:12:50;;;;;;;11.15;6.15;;;10.00;1.00;;;;;;5033783;28;20045;-88
2023/04/28 01:15:42;;;;;;;13.38;6.72;;;10.10;1.00;;;;;;5024260;28;20514;-88
2023/04/28 01:18:31;;;;;;;11.50;6.10;;;10.10;1.00;;;;;;5042802;28;20400;-89
2023/04/28 01:21:31;;;;;;;9.88;5.80;;;10.10;1.00;;;;;;5036221;28;20050;-88
2023/04/28 01:24:18;;;;;;;8.38;5.47;;;10.20;1.00;;;;;;5020944;28;20050;-87
2023/04/28 01:27:08;;;;;;;11.40;6.57;;;10.20;1.00;;;;;;5038851;28;20488;-88
2023/04/28 01:29:57;;;;;;;12.90;6.47;;;10.20;1.00;;;;;;5037787;28;20049;-87
2023/04/28 01:32:44;;;;;;;11.77;6.10;;;10.20;1.00;;;;;;5026918;28;20042;-90
2023/04/28 01:35:36;;;;;;;7.72;5.07;;;10.20;1.00;;;;;;5027904;28;20056;-89
2023/04/28 01:38:25;;;;;;;9.05;6.03;;;10.20;1.00;;;;;;5021106;28;20484;-87
2023/04/28 01:41:21;;;;;;;13.50;5.97;;;10.30;1.00;;;;;;5040033;28;20046;-90
2023/04/28 01:44:08;;;;;;;10.80;5.72;;;10.20;1.00;;;;;;5019618;28;20049;-89
2023/04/28 01:46:55;;;;;;;12.25;5.78;;;10.30;1.00;;;;;;5020325;28;20053;-88
2023/04/28 01:49:43;;;;;;;12.95;5.90;;;10.30;1.00;;;;;;5039835;28;20053;-87
2023/04/28 01:52:30;;;;;;;13.18;6.15;;;10.30;1.00;;;;;;5032479;28;20102;-89
2023/04/28 01:55:20;;;;;;;11.20;6.60;;;10.30;1.00;;;;;;5037555;28;20037;-89
2023/04/28 01:58:07;;;;;;;11.02;7.05;;;10.30;99.90;;;;;;5011419;28;20065;-90
2023/04/28 02:00:54;;;;;;;11.30;7.03;;;10.20;99.90;;;;;;5019911;28;20534;-89
2023/04/28 02:03:44;;;;;;;11.20;7.13;;;10.20;99.90;;;;;;5016667;28;20045;-89
2023/04/28 02:06:31;;;;;;;11.57;6.82;;;10.30;99.90;;;;;;5011522;28;20158;-89
2023/04/28 02:09:22;;;;;;;10.98;6.57;;;10.30;99.90;;;;;;5015523;28;20555;-90
2023/04/28 02:12:09;;;;;;;8.43;5.78;;;10.30;99.90;;;;;;5024671;28;20072;-89
2023/04/28 02:14:56;;;;;;;9.95;5.43;;;10.40;99.90;;;;;;5009435;28;20434;-89
2023/04/28 02:17:43;;;;;;;10.98;5.65;;;10.40;99.90;;;;;;5035052;28;20124;-87
2023/04/28 02:20:31;;;;;;;13.18;6.18;;;10.50;99.90;;;;;;5034332;28;20061;-87
2023/04/28 02:23:19;;;;;;;10.25;6.28;;;10.60;99.90;;;;;;5020206;28;20057;-89
2023/04/28 02:26:06;;;;;;;9.00;5.85;;;10.60;1.00;;;;;;5028878;28;20079;-90
2023/04/28 02:28:53;;;;;;;9.02;6.30;;;10.50;1.00;;;;;;5014670;28;20381;-89
2023/04/28 02:31:40;;;;;;;10.13;6.00;;;10.50;1.00;;;;;;5032042;28;20053;-88
2023/04/28 02:34:28;;;;;;;8.07;5.18;;;10.50;1.00;;;;;;5032979;28;20053;-89
2023/04/28 02:37:15;;;;;;;7.72;5.47;;;10.50;1.00;;;;;;5029585;28;20195;-89
2023/04/28 02:40:04;;;;;;;7.90;5.25;;;10.60;1.00;;;;;;5032483;28;20041;-88
2023/04/28 02:42:52;;;;;;;8.52;5.65;;;10.60;1.00;;;;;;5032656;28;20196;-89
2023/04/28 02:45:39;;;;;;;10.85;6.80;;;10.60;1.00;;;;;;5025208;28;20053;-89
2023/04/28 02:48:26;;;;;;;7.72;5.50;;;10.60;1.00;;;;;;5030887;28;20041;-90
2023/04/28 02:51:16;;;;;;;10.38;5.20;;;10.60;1.00;;;;;;5031889;28;20041;-89
2023/04/28 02:54:03;;;;;;;6.13;5.07;;;10.70;1.00;;;;;;5028200;28;20203;-87
2023/04/28 02:56:51;;;;;;;8.05;4.35;;;10.70;1.00;;;;;;5034400;28;20670;-90
2023/04/28 02:59:38;;;;;;;7.88;4.50;;;10.70;1.00;;;;;;5025468;28;20133;-88
2023/04/28 03:02:27;;;;;;;5.93;3.92;;;10.80;1.00;;;;;;5022038;28;20061;-88
2023/04/28 03:05:15;;;;;;;6.55;4.22;;;10.90;99.90;;;;;;5032904;28;20042;-90
2023/04/28 03:08:03;;;;;;;7.18;4.00;;;11.00;99.90;;;;;;5020431;28;20050;-88
2023/04/28 03:10:50;;;;;;;5.63;4.05;;;11.10;99.90;;;;;;5022428;28;20053;-89
2023/04/28 03:13:38;;;;;;;5.70;3.70;;;11.20;99.90;;;;;;5004848;28;20037;-90
2023/04/28 03:16:25;;;;;;;5.20;4.03;;;11.30;99.90;;;;;;5029057;28;20045;-87
2023/04/28 03:19:13;;;;;;;7.57;4.50;;;11.30;99.90;;;;;;5030485;28;20100;-88
2023/04/28 03:22:00;;;;;;;7.57;4.32;;;11.20;99.90;;;;;;5019384;28;20065;-90
2023/04/28 03:24:48;;;;;;;8.20;4.53;;;11.10;99.90;;;;;;5045989;28;20041;-87
2023/04/28 03:27:39;;;;;;;7.22;4.10;;;11.10;99.90;;;;;;5053519;28;20076;-89
2023/04/28 03:30:28;;;;;;;7.28;3.92;;;11.20;99.90;;;;;;5019787;28;20049;-90
2023/04/28 03:33:16;;;;;;;8.00;3.60;;;11.20;99.90;;;;;;5172972;22;20050;-88
2023/04/28 03:36:04;;;;;;;5.45;3.90;;;11.30;99.90;;;;;;4980840;28;20082;-88
2023/04/28 03:38:51;;;;;;;5.85;3.97;;;11.30;99.90;;;;;;5017763;28;20058;-90
2023/04/28 03:41:39;;;;;;;6.60;4.18;;;11.20;99.90;;;;;;4994940;28;20081;-89
2023/04/28 03:44:26;;;;;;;7.75;4.65;;;11.20;99.90;;;;;;5016130;28;20042;-90
2023/04/28 03:47:13;;;;;;;6.68;4.68;;;11.20;99.90;;;;;;5011948;28;20384;-88
2023/04/28 03:50:00;;;;;;;8.00;4.65;;;11.30;99.90;;;;;;5010069;28;20041;-88
2023/04/28 03:52:47;;;;;;;6.45;4.07;;;11.30;99.90;;;;;;4996274;28;20120;-89
2023/04/28 03:55:35;;;;;;;6.20;3.97;;;11.40;99.90;;;;;;5016300;28;20192;-88
2023/04/28 03:58:22;;;;;;;5.85;3.80;;;11.40;99.90;;;;;;5015637;28;20042;-87
2023/04/28 04:01:58;;;;;;;11.70;4.20;;;11.50;99.90;;;;;;5018858;28;20465;-88
2023/04/28 04:05:00;;;;;;;7.00;3.78;;;11.50;99.90;;;;;;5005326;28;20068;-88
2023/04/28 04:07:49;;;;;;;5.32;3.80;;;11.50;99.90;;;;;;4995518;28;20543;-87
2023/04/28 04:10:39;;;;;;;6.18;4.30;;;11.50;99.90;;;;;;5010802;28;20046;-87
2023/04/28 04:13:32;;;;;;;6.22;4.10;;;11.50;99.90;;;;;;5015048;28;20064;-89
2023/04/28 04:16:20;;;;;;;9.20;4.67;;;11.50;99.90;;;;;;5016221;28;20555;-88
2023/04/28 04:19:08;;;;;;;7.15;4.53;;;11.50;99.90;;;;;;5001493;28;20595;-87
2023/04/28 04:21:56;;;;;;;8.80;3.88;;;11.50;99.90;;;;;;5002831;28;20050;-90
2023/04/28 04:24:46;;;;;;;8.65;4.78;;;11.50;99.90;;;;;;5003328;28;20116;-86
2023/04/28 04:27:33;;;;;;;6.65;4.45;;;11.40;99.90;;;;;;5002950;28;20135;-87
2023/04/28 04:30:21;;;;;;;8.52;4.88;;;11.30;99.90;;;;;;5012835;28;20050;-86
2023/04/28 04:33:08;;;;;;;6.78;4.88;;;11.10;1.00;;;;;;4997547;28;20102;-87
2023/04/28 04:35:55;;;;;;;8.88;5.18;;;10.90;1.00;;;;;;5008512;28;20046;-87
2023/04/28 04:38:42;;;;;;;11.88;6.35;;;10.80;92.90;;;;;;4994604;28;20042;-86
2023/04/28 04:41:30;;;;;;;7.55;5.90;;;10.70;99.90;;;;;;5018158;28;20093;-88
2023/04/28 04:44:20;;;;;;;6.38;5.43;;;10.60;99.90;;;;;;5021169;28;20042;-88
2023/04/28 04:47:07;;;;;;;11.35;6.13;;;10.60;1.00;;;;;;5003232;28;20057;-88
2023/04/28 04:49:55;;;;;;;11.60;6.78;;;10.50;1.00;;;;;;5014981;28;20046;-87
2023/04/28 04:52:45;;;;;;;12.02;6.45;;;10.40;99.90;;;;;;4984656;28;20053;-87
2023/04/28 04:55:32;;;;;;;9.40;6.70;;;10.40;99.90;;;;;;5014018;28;20121;-86
2023/04/28 04:58:20;;;;;;;10.02;7.00;;;10.30;1.00;;;;;;5020960;28;20057;-87
2023/04/28 05:01:08;;;;;;;12.27;7.20;;;10.30;99.90;;;;;;5006515;28;20133;-87
2023/04/28 05:03:55;;;;;;;15.90;7.93;;;10.30;1.00;;;;;;4986869;28;20046;-87
2023/04/28 05:06:43;;;;;;;10.65;7.07;;;10.30;99.90;;;;;;4988033;28;20505;-90
2023/04/28 05:09:32;;;;;;;12.82;8.07;;;10.40;99.90;;;;;;4996022;28;20045;-86
2023/04/28 05:12:20;;;;;;;10.02;7.03;;;10.40;1.00;;;;;;5012949;28;20045;-88
2023/04/28 05:15:07;;;;;;;13.57;8.15;;;10.30;99.90;;;;;;5015073;28;20046;-87
2023/04/28 05:17:57;;;;;;;11.75;7.63;;;10.30;1.00;;;;;;5007531;28;20045;-89
2023/04/28 05:20:44;;;;;;;15.32;8.25;;;10.30;99.90;;;;;;5019544;28;20069;-86
2023/04/28 05:23:32;;;;;;;12.15;7.50;;;10.30;99.90;;;;;;5010327;28;20149;-87
2023/04/28 05:26:20;;;;;;;13.27;8.70;;;10.30;1.00;;;;;;5015920;28;20356;-88
2023/04/28 05:29:07;;;;;;;13.38;8.43;;;10.40;99.90;;;;;;5000421;28;20046;-87
2023/04/28 05:32:14;;;;;;;11.40;7.63;;;10.40;1.00;;;;;;5014470;28;20144;-90
2023/04/28 05:35:02;;;;;;;11.63;8.30;;;10.40;99.90;;;;;;5000615;28;20038;-87
2023/04/28 05:37:51;;;;;;;12.68;8.07;;;10.50;99.90;;;;;;5009974;28;20073;-87
2023/04/28 05:40:38;;;;;;;9.68;7.60;;;10.40;99.90;;;;;;5008595;28;20044;-89
2023/04/28 05:43:30;;;;;;;13.32;7.43;;;10.40;99.90;;;;;;5015699;28;20072;-87
2023/04/28 05:46:19;;;;;;;12.35;8.15;;;10.50;99.90;;;;;;5006365;28;20077;-89
2023/04/28 05:49:16;;;;;;;15.60;7.53;;;10.50;1.00;;;;;;5015624;28;20050;-89
2023/04/28 05:52:03;;;;;;;13.63;7.68;;;10.50;1.00;;;;;;5006857;28;20053;-87
2023/04/28 05:54:50;;;;;;;11.95;7.90;;;10.50;1.00;;;;;;5028567;28;20069;-85
2023/04/28 06:38:17;;;;;;;9.95;6.78;;;11.10;99.90;;;;;;5124301;23;20054;-86
2023/04/28 06:41:04;;;;;;;12.75;7.30;;;11.20;93.40;;;;;;4983187;28;20457;-90
2023/04/28 06:43:54;;;;;;;11.13;5.70;;;11.30;1.00;;;;;;4990800;28;20056;-86
2023/04/28 06:46:49;;;;;;;7.25;5.82;;;11.30;1.00;;;;;;4993689;28;20073;-90
2023/04/28 06:49:44;;;;;;;9.18;5.68;;;11.30;99.90;;;;;;4996505;28;20070;-88
2023/04/28 06:52:57;;;;;;;7.30;5.60;;;11.40;1.00;;;;;;4997915;28;20094;-87
2023/04/28 06:55:45;;;;;;;10.75;6.53;;;11.40;4.60;;;;;;4981484;28;20047;-86
2023/04/28 06:58:32;;;;;;;11.05;6.10;;;11.40;99.90;;;;;;4993502;28;20038;-88
2023/04/28 07:01:23;;;;;;;9.10;6.68;;;11.40;99.90;;;;;;4977222;28;20377;-88
2023/04/28 07:04:12;;;;;;;8.68;5.75;;;11.40;65.80;;;;;;4982038;28;20038;-86
2023/04/28 07:07:06;;;;;;;6.85;5.93;;;11.50;1.00;;;;;;4994589;28;20081;-85
2023/04/28 07:09:54;;;;;;;8.45;6.07;;;11.50;99.90;;;;;;4993986;28;20042;-85
2023/04/28 07:12:41;;;;;;;10.13;6.00;;;11.60;99.90;;;;;;4972912;28;20058;-86
2023/04/28 07:15:46;;;;;;;12.75;6.22;;;11.60;99.90;;;;;;4986398;28;20042;-87
2023/04/28 07:18:34;;;;;;;7.60;6.50;;;11.60;8.60;;;;;;4998088;28;20508;-89
2023/04/28 07:21:24;;;;;;;11.18;6.07;;;11.60;14.30;;;;;;4990049;28;20070;-88
2023/04/28 07:24:12;;;;;;;7.82;5.63;;;11.70;1.00;;;;;;4994522;28;20854;-86
2023/04/28 07:27:00;;;;;;;7.65;5.70;;;11.70;99.90;;;;;;4990725;28;20049;-89
2023/04/28 07:29:47;;;;;;;9.02;6.55;;;11.60;57.40;;;;;;5013193;28;20050;-89
2023/04/28 07:32:35;;;;;;;9.30;6.30;;;11.70;99.90;;;;;;5011630;28;20037;-86
2023/04/28 07:35:23;;;;;;;12.48;6.97;;;11.60;99.90;;;;;;4989190;28;20046;-87
2023/04/28 07:38:11;;;;;;;9.13;7.47;;;11.60;99.90;;;;;;5004558;28;20203;-89
2023/04/28 07:40:58;;;;;;;12.45;8.27;;;11.50;99.90;;;;;;4997315;28;20137;-88
2023/04/28 07:43:46;;;;;;;12.93;8.38;;;11.40;34.00;;;;;;4996895;28;20326;-86
2023/04/28 07:46:34;;;;;;;11.52;7.55;;;11.30;1.00;;;;;;4995408;28;20054;-87
2023/04/28 07:49:21;;;;;;;11.07;8.10;;;11.30;99.90;;;;;;4984737;28;20755;-87
2023/04/28 07:52:09;;;;;;;13.88;9.13;;;11.30;99.90;;;;;;5011865;28;20038;-90
2023/04/28 07:54:59;;;;;;;12.90;8.85;;;11.30;99.90;;;;;;4982080;28;20057;-87
2023/04/28 07:57:48;;;;;;;11.85;9.43;;;11.30;99.90;;;;;;4986805;28;20145;-89
2023/04/28 08:00:35;;;;;;;12.52;8.93;;;11.40;99.90;;;;;;4992866;28;20046;-87
2023/04/28 08:03:25;;;;;;;15.27;10.45;;;11.40;99.90;;;;;;4997081;28;20054;-87
2023/04/28 08:06:16;;;;;;;20.17;11.32;;;11.40;99.90;;;;;;4995202;28;20050;-86
2023/04/28 08:09:06;;;;;;;18.98;11.25;;;11.40;99.90;;;;;;4989707;28;20436;-86
2023/04/28 08:11:53;;;;;;;16.58;11.02;;;11.50;99.90;;;;;;4993781;28;20046;-86
2023/04/28 08:14:41;;;;;;;18.02;10.90;;;11.50;99.90;;;;;;4976682;28;20123;-85
2023/04/28 08:17:31;;;;;;;17.75;11.75;;;11.60;99.90;;;;;;4980577;28;20050;-88
2023/04/28 08:20:21;;;;;;;19.30;12.98;;;11.60;99.90;;;;;;4995781;28;20046;-86
2023/04/28 08:23:13;;;;;;;17.70;12.25;;;11.60;99.90;;;;;;5000239;28;20042;-88
2023/04/28 08:26:00;;;;;;;17.90;12.85;;;11.70;99.90;;;;;;5003471;28;20101;-88
2023/04/28 08:28:48;;;;;;;14.88;11.60;;;11.70;99.90;;;;;;5009529;28;20069;-85
2023/04/28 08:31:35;;;;;;;22.63;11.73;;;11.70;99.90;;;;;;4992506;28;20116;-89
2023/04/28 08:34:23;;;;;;;13.13;10.90;;;11.70;99.90;;;;;;4998630;28;20466;-85
2023/04/28 08:37:13;;;;;;;14.95;11.43;;;11.80;99.90;;;;;;4994422;28;20046;-85
2023/04/28 08:40:03;;;;;;;15.38;11.45;;;11.90;99.90;;;;;;4999101;28;20710;-85
2023/04/28 08:42:51;;;;;;;15.10;10.88;;;12.00;99.90;;;;;;4996555;28;20042;-88
2023/04/28 08:45:44;;;;;;;16.55;11.35;;;12.00;99.90;;;;;;4999799;28;20054;-85
2023/04/28 08:48:47;;;;;;;13.52;10.85;;;12.10;99.90;;;;;;4993640;28;20057;-88
2023/04/28 08:51:42;;;;;;;15.90;11.38;;;12.20;99.90;;;;;;4985475;28;20047;-87
2023/04/28 08:54:31;;;;;;;14.18;10.82;;;12.20;99.90;;;;;;4983732;28;20035;-88
2023/04/28 08:57:20;;;;;;;15.23;11.82;;;12.20;99.90;;;;;;5002419;28;20042;-87
2023/04/28 09:00:08;;;;;;;12.95;9.90;;;12.30;99.90;;;;;;4992620;28;20265;-87
2023/04/28 09:02:55;;;;;;;14.45;9.95;;;12.30;99.90;;;;;;4992476;28;20049;-86
2023/04/28 09:05:43;;;;;;;12.95;10.38;;;12.30;99.90;;;;;;5003051;28;20081;-85
2023/04/28 09:08:34;;;;;;;12.75;9.02;;;12.40;99.90;;;;;;5005228;28;20128;-84
2023/04/28 09:11:22;;;;;;;12.50;10.10;;;12.30;99.90;;;;;;5010699;28;20042;-88
2023/04/28 09:14:13;;;;;;;11.60;9.13;;;12.40;99.90;;;;;;4995964;28;20307;-87
2023/04/28 09:17:02;;;;;;;15.40;9.43;;;12.40;99.90;;;;;;4993025;28;20046;-82
2023/04/28 09:19:52;;;;;;;11.25;8.48;;;12.50;99.90;;;;;;4996137;28;20045;-86
2023/04/28 09:22:42;;;;;;;10.20;7.97;;;12.70;99.90;;;;;;4995643;28;20042;-88
2023/04/28 09:25:32;;;;;;;11.50;8.45;;;12.80;99.90;;;;;;4977632;28;20144;-85
2023/04/28 09:28:21;;;;;;;8.98;7.00;;;13.00;99.90;;;;;;4993975;28;20034;-89
2023/04/28 09:31:26;;;;;;;8.93;7.38;;;13.10;99.90;;;;;;5000525;28;20144;-83
2023/04/28 09:34:17;;;;;;;9.13;6.38;;;13.20;99.90;;;;;;4993179;28;20173;-89
2023/04/28 09:37:21;;;;;;;10.40;7.75;;;13.20;99.90;;;;;;4987585;28;20532;-88
2023/04/28 09:40:12;;;;;;;7.30;6.20;;;13.20;99.90;;;;;;4991926;28;20042;-87
2023/04/28 09:42:59;;;;;;;11.80;7.03;;;13.20;99.90;;;;;;4993634;28;20435;-87
2023/04/28 09:46:04;;;;;;;7.65;6.53;;;13.40;99.90;;;;;;4984286;28;20046;-87
2023/04/28 09:49:01;;;;;;;11.30;6.35;;;13.50;99.90;;;;;;4975956;28;20101;-83
2023/04/28 09:51:51;;;;;;;5.05;4.55;;;13.70;99.90;;;;;;5000965;28;20054;-85
2023/04/28 09:54:39;;;;;;;5.45;3.50;;;13.80;99.90;;;;;;4997236;28;20548;-85
2023/04/28 09:57:31;;;;;;;2.85;2.45;;;14.10;99.90;;;;;;4994975;28;20050;-88
2023/04/28 10:00:19;;;;;;;4.03;2.22;;;14.50;99.90;;;;;;4991683;28;20057;-86
2023/04/28 10:03:09;;;;;;;2.08;1.30;;;15.40;99.90;;;;;;4981967;28;20042;-87
2023/04/28 10:05:58;;;;;;;1.40;1.30;;;16.00;99.90;;;;;;4982588;28;20046;-87
2023/04/28 10:08:47;;;;;;;0.75;0.75;;;16.10;99.90;;;;;;4985747;28;20050;-85
2023/04/28 10:11:36;;;;;;;1.77;1.05;;;16.10;24.10;;;;;;4988820;28;20050;-84
2023/04/28 10:14:23;;;;;;;1.77;1.05;;;16.00;99.90;;;;;;4992412;28;20454;-85
2023/04/28 10:17:15;;;;;;;8.75;1.10;;;16.10;99.90;;;;;;4996746;28;20081;-85
2023/04/28 10:20:04;;;;;;;0.93;0.80;;;16.30;99.90;;;;;;4978930;28;20140;-83
2023/04/28 10:23:12;;;;;;;3.42;0.85;;;16.50;99.90;;;;;;4983280;28;20536;-83
2023/04/28 10:26:09;;;;;;;0.98;0.88;;;16.60;1.00;;;;;;4992562;28;20439;-85
2023/04/28 10:28:59;;;;;;;0.63;0.63;;;16.20;99.90;;;;;;4988738;28;20050;-83
2023/04/28 10:32:22;;;;;;;1.58;0.80;;;16.20;12.30;;;;;;4993254;28;20058;-86
2023/04/28 10:35:28;;;;;;;0.98;0.65;;;16.40;1.00;;;;;;4993387;28;20042;-85
2023/04/28 10:38:16;;;;;;;1.58;0.98;;;16.50;1.00;;;;;;4984810;28;20042;-84
2023/04/28 10:41:03;;;;;;;0.73;0.70;;;16.40;1.00;;;;;;4987828;28;20509;-84
2023/04/28 10:43:50;;;;;;;2.50;1.08;;;16.40;1.40;;;;;;4990652;28;20053;-87
2023/04/28 10:47:00;;;;;;;0.98;0.80;;;16.70;62.20;;;;;;4979197;28;20047;-86
2023/04/28 10:49:55;;;;;;;0.68;0.60;;;17.30;1.00;;;;;;4978937;28;20046;-85
2023/04/28 10:52:45;;;;;;;2.15;0.65;;;17.40;99.90;;;;;;4992486;28;20078;-86
2023/04/28 10:55:38;;;;;;;0.80;0.52;;;17.10;99.90;;;;;;4993169;28;20370;-85
2023/04/28 10:58:29;;;;;;;1.42;0.50;;;16.90;99.90;;;;;;4979435;28;20389;-86
2023/04/28 11:01:20;;;;;;;3.55;0.80;;;16.50;32.10;;;;;;4992327;28;20054;-87
2023/04/28 11:04:12;;;;;;;0.68;0.68;;;16.40;74.30;;;;;;4992158;28;20042;-89
2023/04/28 11:07:12;;;;;;;0.82;0.77;;;16.30;77.30;;;;;;5003357;28;20050;-91
2023/04/28 11:10:00;;;;;;;4.53;0.80;;;16.40;52.70;;;;;;4987165;28;20056;-88
2023/04/28 11:13:25;;;;;;;1.10;0.60;;;16.30;8.10;;;;;;4978417;28;20320;-90
2023/04/28 11:16:18;;;;;;;1.35;0.70;;;16.20;1.00;;;;;;5003347;28;20053;-89
2023/04/28 11:19:09;;;;;;;1.80;1.00;;;16.30;1.00;;;;;;5005899;28;20125;-87
2023/04/28 11:22:01;;;;;;;1.48;0.63;;;16.30;1.00;;;;;;4992977;28;20057;-89
2023/04/28 11:25:00;;;;;;;3.45;1.27;;;16.20;1.00;;;;;;5003690;28;20508;-88
2023/04/28 11:27:47;;;;;;;1.90;0.77;;;16.80;1.00;;;;;;4995106;28;20097;-88
2023/04/28 11:30:34;;;;;;;2.00;0.90;;;17.70;1.00;;;;;;5004129;28;20074;-84
2023/04/28 11:33:25;;;;;;;0.77;0.50;;;18.50;99.90;;;;;;5006359;28;20053;-90
2023/04/28 11:36:44;;;;;;;1.35;0.43;;;18.60;99.90;;;;;;5012053;28;20046;-91
2023/04/28 11:39:35;;;;;;;0.47;0.45;;;18.20;99.90;;;;;;4998155;28;20496;-88
2023/04/28 11:42:24;;;;;;;0.50;0.50;;;17.70;29.50;;;;;;4998281;28;20117;-87
2023/04/28 11:45:12;;;;;;;0.50;0.50;;;17.80;45.50;;;;;;5004328;28;20046;-89
2023/04/28 11:48:19;;;;;;;0.70;0.50;;;17.70;14.60;;;;;;4991450;28;20085;-87
2023/04/28 11:51:07;;;;;;;2.33;0.52;;;17.50;8.90;;;;;;5004424;28;20061;-89
2023/04/28 11:53:54;;;;;;;0.77;0.50;;;17.50;22.50;;;;;;4994800;28;20046;-88
2023/04/28 11:56:44;;;;;;;0.68;0.52;;;17.80;8.80;;;;;;5004612;28;20057;-90
2023/04/28 11:59:34;;;;;;;0.75;0.65;;;17.60;1.00;;;;;;4989476;28;20050;-88
2023/04/28 12:02:30;;;;;;;1.17;0.55;;;17.10;1.00;;;;;;5000244;28;20125;-88
2023/04/28 12:05:20;;;;;;;3.00;0.50;;;16.80;1.00;;;;;;4995565;28;20078;-89
2023/04/28 12:08:13;;;;;;;1.10;0.50;;;16.60;26.00;;;;;;4997596;28;20043;-88
2023/04/28 12:11:10;;;;;;;1.60;0.57;;;16.50;83.50;;;;;;5001921;28;20026;-86
2023/04/28 12:14:05;;;;;;;0.40;0.40;;;16.30;79.90;;;;;;5008793;28;20050;-90
2023/04/28 12:16:53;;;;;;;1.15;0.50;;;16.40;99.90;;;;;;4992193;28;20050;-91
2023/04/28 12:19:44;;;;;;;0.50;0.50;;;16.60;91.20;;;;;;4990641;28;20030;-89
2023/04/28 12:22:43;;;;;;;0.45;0.45;;;16.90;23.20;;;;;;4995477;28;20058;-90
2023/04/28 12:25:30;;;;;;;1.13;0.50;;;17.20;1.00;;;;;;5007699;28;20062;-88
2023/04/28 12:28:18;;;;;;;0.77;0.55;;;17.50;1.00;;;;;;5000406;28;20422;-91
2023/04/28 12:31:10;;;;;;;0.43;0.43;;;17.70;1.00;;;;;;4985154;28;20042;-87
2023/04/28 12:33:59;;;;;;;0.60;0.38;;;17.80;1.00;;;;;;4999978;28;20524;-92
2023/04/28 12:36:47;;;;;;;0.52;0.40;;;17.80;1.00;;;;;;4991369;28;20065;-89
2023/04/28 12:39:37;;;;;;;0.80;0.45;;;17.80;1.00;;;;;;5008346;28;20055;-88
2023/04/28 12:42:26;;;;;;;0.63;0.47;;;17.90;1.00;;;;;;4993974;28;20060;-88
2023/04/28 12:45:19;;;;;;;1.00;0.60;;;17.70;99.90;;;;;;4989592;28;20217;-88
2023/04/28 12:48:10;;;;;;;2.00;0.47;;;17.40;99.90;;;;;;5010913;28;20097;-88
2023/04/28 12:51:02;;;;;;;1.23;0.50;;;17.60;1.00;;;;;;5010365;28;20039;-87
2023/04/28 12:53:52;;;;;;;1.90;1.20;;;17.60;1.00;;;;;;5003124;28;20073;-87
2023/04/28 12:56:40;;;;;;;1.75;0.57;;;17.60;99.90;;;;;;4994767;28;20117;-88
2023/04/28 12:59:31;;;;;;;5.53;0.57;;;17.80;99.90;;;;;;4997395;28;20042;-87
2023/04/28 13:02:19;;;;;;;1.75;0.98;;;18.00;99.90;;;;;;4991589;28;20161;-88
2023/04/28 13:05:08;;;;;;;0.70;0.60;;;18.00;99.90;;;;;;4998865;28;20046;-85
2023/04/28 13:07:56;;;;;;;1.55;0.60;;;18.00;99.90;;;;;;5007160;28;20077;-88
2023/04/28 13:10:45;;;;;;;2.88;0.40;;;18.00;99.90;;;;;;5008635;28;20061;-88
2023/04/28 13:13:37;;;;;;;4.15;0.77;;;18.10;99.90;;;;;;4996000;28;20377;-89
2023/04/28 13:16:28;;;;;;;1.30;0.50;;;18.20;99.90;;;;;;5015844;28;20042;-86
2023/04/28 13:19:18;;;;;;;0.32;0.32;;;18.20;99.90;;;;;;4999550;28;20042;-85
2023/04/28 13:22:06;;;;;;;2.00;0.60;;;18.10;99.90;;;;;;5001509;28;20061;-88
2023/04/28 13:24:57;;;;;;;1.75;0.70;;;17.80;99.90;;;;;;4997323;28;20051;-86
2023/04/28 13:27:44;;;;;;;1.17;0.60;;;17.60;99.90;;;;;;4981994;28;20050;-89
2023/04/28 13:30:33;;;;;;;0.90;0.70;;;17.30;99.90;;;;;;5001405;28;20052;-88
2023/04/28 13:33:20;;;;;;;0.60;0.60;;;17.30;99.90;;;;;;5006483;28;20121;-86
2023/04/28 13:36:08;;;;;;;1.73;0.75;;;17.10;99.90;;;;;;4997998;28;20486;-86
2023/04/28 13:38:58;;;;;;;0.82;0.57;;;16.80;1.00;;;;;;5001547;28;20046;-87
2023/04/28 13:41:51;;;;;;;0.90;0.60;;;16.60;1.00;;;;;;4987627;28;20130;-89
2023/04/28 13:44:39;;;;;;;1.40;0.82;;;16.50;1.00;;;;;;4999465;28;20094;-91
2023/04/28 13:47:27;;;;;;;4.68;0.90;;;16.30;99.90;;;;;;5002528;28;20061;-89
2023/04/28 13:50:14;;;;;;;3.85;0.95;;;15.90;99.90;;;;;;5010151;28;20065;-86
2023/04/28 13:53:04;;;;;;;1.65;1.30;;;15.80;55.60;;;;;;5005429;28;20056;-86
2023/04/28 13:55:52;;;;;;;7.25;1.38;;;15.80;1.00;;;;;;5006200;28;20046;-87
2023/04/28 13:58:48;;;;;;;1.33;0.88;;;15.90;99.90;;;;;;5006987;28;20027;-83
2023/04/28 14:01:37;;;;;;;2.60;0.90;;;15.90;99.90;;;;;;4994025;28;20030;-86
2023/04/28 14:04:24;;;;;;;1.83;1.30;;;15.60;99.90;;;;;;5015216;28;20034;-87
2023/04/28 14:07:15;;;;;;;6.97;1.70;;;15.50;22.90;;;;;;5012819;28;20042;-87
2023/04/28 14:10:06;;;;;;;4.72;1.50;;;15.50;99.90;;;;;;5012492;28;20081;-86
2023/04/28 14:12:56;;;;;;;1.05;0.60;;;15.40;99.90;;;;;;5014154;28;20154;-91
2023/04/28 14:15:46;;;;;;;0.85;0.50;;;15.30;99.90;;;;;;5006694;28;20038;-87
2023/04/28 14:18:45;;;;;;;2.30;0.60;;;15.10;99.90;;;;;;4980349;28;20046;-88
2023/04/28 14:21:32;;;;;;;4.53;0.80;;;14.90;99.90;;;;;;4998201;28;20050;-89
2023/04/28 14:24:20;;;;;;;2.67;0.80;;;14.70;1.00;;;;;;4987654;28;20070;-87
2023/04/28 14:27:08;;;;;;;1.48;0.77;;;14.60;99.90;;;;;;4987954;28;20050;-88
2023/04/28 14:29:56;;;;;;;5.38;1.05;;;14.40;1.00;;;;;;4993744;28;20117;-89
2023/04/28 14:32:43;;;;;;;2.17;0.90;;;14.40;99.90;;;;;;4986924;28;20058;-87
2023/04/28 14:35:31;;;;;;;1.13;0.80;;;14.40;1.00;;;;;;4987202;28;20736;-86
2023/04/28 14:38:18;;;;;;;1.23;0.88;;;14.40;1.00;;;;;;4992407;28;20046;-83
2023/04/28 14:41:05;;;;;;;1.25;1.00;;;14.40;99.90;;;;;;5002081;28;20054;-89
2023/04/28 14:44:01;;;;;;;2.13;0.93;;;14.40;99.90;;;;;;4991192;28;20058;-90
2023/04/28 14:46:48;;;;;;;1.50;1.00;;;14.40;99.90;;;;;;4997041;28;20416;-87
2023/04/28 14:49:38;;;;;;;1.73;1.50;;;14.30;99.90;;;;;;4975834;28;20086;-89
2023/04/28 14:52:32;;;;;;;2.67;1.00;;;14.30;99.90;;;;;;4995620;28;20054;-89
2023/04/28 14:55:19;;;;;;;2.15;1.00;;;14.20;99.90;;;;;;4987388;28;20050;-84
2023/04/28 14:58:06;;;;;;;1.10;1.00;;;14.00;99.90;;;;;;4997124;28;20077;-88
2023/04/28 15:00:54;;;;;;;1.17;1.08;;;14.10;99.90;;;;;;4997188;28;20105;-84
2023/04/28 15:03:44;;;;;;;1.67;0.93;;;14.10;99.90;;;;;;5000270;28;20165;-86
2023/04/28 15:06:32;;;;;;;2.10;1.00;;;14.00;99.90;;;;;;4981977;28;20061;-85
2023/04/28 15:09:20;;;;;;;1.55;1.10;;;13.90;99.90;;;;;;4998369;28;20046;-85
2023/04/28 15:12:10;;;;;;;2.22;1.25;;;13.90;99.90;;;;;;5003638;28;20053;-87
2023/04/28 15:14:58;;;;;;;1.60;1.20;;;14.00;99.90;;;;;;4994676;28;20046;-86
2023/04/28 15:17:47;;;;;;;0.95;0.60;;;14.10;99.90;;;;;;4999164;28;20065;-86
2023/04/28 15:20:37;;;;;;;1.45;1.10;;;14.00;99.90;;;;;;4988257;28;20057;-86
2023/04/28 15:23:24;;;;;;;0.70;0.70;;;14.10;99.90;;;;;;5000810;28;20069;-86
2023/04/28 15:26:11;;;;;;;1.08;0.95;;;14.10;99.90;;;;;;4991298;28;20069;-86